Time;durP1;ratioP1;P1;durP2;ratioP2;P2;SDS_P1;SDS_P2;PMS_P1;PMS_P2;Temp;Humidity;BMP_temperature;BMP_pressure;BME280_temperature;BME280_humidity;BME280_pressure;Samples;Min_cycle;Max_cycle;Signal;HPM_P1;HPM_P2
2021/04/19 00:01:50;;;;;;;1999.90;999.90;;;;;;;8.24;82.96;98375.38;5074173;28;20080;-65
2021/04/19 00:04:16;;;;;;;1999.90;999.90;;;;;;;8.17;83.49;98377.75;5067124;28;20049;-65
2021/04/19 00:06:43;;;;;;;1999.90;999.90;;;;;;;8.27;83.35;98379.47;5068191;28;20062;-65
2021/04/19 00:09:09;;;;;;;1999.90;999.90;;;;;;;8.51;82.33;98378.41;5064112;28;20105;-65
2021/04/19 00:11:35;;;;;;;1999.90;999.90;;;;;;;8.64;81.42;98374.78;5069480;28;20446;-65
2021/04/19 00:14:03;;;;;;;1999.90;999.90;;;;;;;8.18;82.92;98368.38;5065747;28;20415;-65
2021/04/19 00:16:29;;;;;;;1999.90;999.90;;;;;;;8.13;84.30;98367.66;5067199;28;20090;-65
2021/04/19 00:18:55;;;;;;;1999.90;999.90;;;;;;;8.15;84.00;98365.44;5069276;28;20044;-65
2021/04/19 00:21:21;;;;;;;1999.90;999.90;;;;;;;8.26;83.61;98362.13;5065195;28;20044;-65
2021/04/19 00:23:47;;;;;;;1999.90;999.90;;;;;;;8.45;82.57;98363.94;5066305;28;20116;-65
2021/04/19 00:26:14;;;;;;;1999.90;999.90;;;;;;;8.31;83.23;98363.97;5066512;28;21126;-65
2021/04/19 00:28:40;;;;;;;1999.90;999.90;;;;;;;8.35;82.87;98367.72;5068705;28;20051;-65
2021/04/19 00:31:08;;;;;;;1999.90;999.90;;;;;;;8.26;82.96;98364.06;5064768;28;20068;-65
2021/04/19 00:33:34;;;;;;;1999.90;999.90;;;;;;;8.35;82.86;98361.38;5065921;28;20052;-65
2021/04/19 00:36:00;;;;;;;1999.90;999.90;;;;;;;8.43;82.32;98357.91;5067604;28;20045;-65
2021/04/19 00:38:27;;;;;;;1999.90;999.90;;;;;;;8.67;81.96;98354.88;5065993;28;20488;-65
2021/04/19 00:40:54;;;;;;;1999.90;999.90;;;;;;;8.20;83.29;98360.63;5065892;28;20056;-65
2021/04/19 00:43:21;;;;;;;1999.90;999.90;;;;;;;8.34;82.67;98357.81;5065765;28;20045;-65
2021/04/19 00:45:50;;;;;;;1999.90;999.90;;;;;;;8.33;82.71;98356.19;5066996;28;20078;-65
2021/04/19 00:48:18;;;;;;;1999.90;999.90;;;;;;;8.24;83.02;98356.09;5061189;28;20500;-65
2021/04/19 00:50:45;;;;;;;1999.90;999.90;;;;;;;8.18;83.67;98353.78;5063583;28;20049;-65
2021/04/19 00:53:14;;;;;;;1999.90;999.90;;;;;;;8.31;83.23;98358.44;5065402;28;20044;-65
2021/04/19 00:55:40;;;;;;;1999.90;999.90;;;;;;;8.41;82.68;98355.47;5067616;28;20141;-65
2021/04/19 00:58:06;;;;;;;1999.90;999.90;;;;;;;8.50;82.06;98358.31;5068039;28;20044;-65
2021/04/19 01:00:34;;;;;;;1999.90;999.90;;;;;;;8.59;81.97;98355.59;5066512;28;20049;-65
2021/04/19 01:03:01;;;;;;;1999.90;999.90;;;;;;;8.98;80.04;98360.44;5067602;28;20071;-65
2021/04/19 01:05:31;;;;;;;1999.90;999.90;;;;;;;8.81;80.68;98355.63;5065539;28;20060;-65
2021/04/19 01:07:58;;;;;;;1999.90;999.90;;;;;;;8.85;80.52;98355.00;5059625;28;20480;-65
2021/04/19 01:10:24;;;;;;;1999.90;999.90;;;;;;;8.55;81.74;98358.19;5065693;28;20101;-65
2021/04/19 01:12:50;;;;;;;1999.90;999.90;;;;;;;8.54;81.85;98351.03;5066404;28;20059;-65
2021/04/19 01:15:17;;;;;;;1999.90;999.90;;;;;;;8.61;81.55;98354.19;5065320;28;20048;-65
2021/04/19 01:17:45;;;;;;;1999.90;999.90;;;;;;;8.69;81.23;98352.59;5067761;28;20040;-65
2021/04/19 01:20:15;;;;;;;1999.90;999.90;;;;;;;8.08;83.74;98352.91;5067704;28;20079;-65
2021/04/19 01:22:43;;;;;;;1999.90;999.90;;;;;;;8.00;84.13;98358.31;5066028;28;20075;-65
2021/04/19 01:25:14;;;;;;;1999.90;999.90;;;;;;;8.01;84.11;98355.25;5068314;28;20052;-65
2021/04/19 01:27:40;;;;;;;1999.90;999.90;;;;;;;8.07;83.96;98348.50;5062653;28;20379;-65
2021/04/19 01:30:07;;;;;;;1999.90;999.90;;;;;;;8.03;84.83;98347.47;5068776;28;20458;-65
2021/04/19 01:32:33;;;;;;;1999.90;999.90;;;;;;;8.09;84.37;98345.44;5063582;28;20056;-65
2021/04/19 01:35:00;;;;;;;1999.90;999.90;;;;;;;7.76;85.14;98353.84;5062148;28;20053;-65
2021/04/19 01:37:27;;;;;;;1999.90;999.90;;;;;;;7.96;84.77;98349.84;5065797;28;20040;-65
2021/04/19 01:39:53;;;;;;;1999.90;999.90;;;;;;;7.93;85.11;98353.22;5065334;28;20109;-65
2021/04/19 01:42:19;;;;;;;1999.90;999.90;;;;;;;8.00;84.52;98352.81;5066706;28;20097;-65
2021/04/19 01:44:45;;;;;;;1999.90;999.90;;;;;;;8.01;84.70;98344.22;5065765;28;20487;-65
2021/04/19 01:47:12;;;;;;;1999.90;999.90;;;;;;;8.06;83.93;98352.38;5053836;28;20041;-65
2021/04/19 01:49:38;;;;;;;1999.90;999.90;;;;;;;7.86;84.71;98353.63;5063574;28;20106;-65
2021/04/19 01:52:04;;;;;;;1999.90;999.90;;;;;;;8.00;84.44;98350.84;5061416;28;20566;-65
2021/04/19 01:54:31;;;;;;;1999.90;999.90;;;;;;;8.06;84.13;98348.81;5062354;28;20133;-65
2021/04/19 01:56:57;;;;;;;1999.90;999.90;;;;;;;8.06;84.26;98359.81;5064802;28;20051;-65
2021/04/19 01:59:24;;;;;;;1999.90;999.90;;;;;;;7.91;84.55;98358.22;5063422;28;20446;-65
2021/04/19 02:01:58;;;;;;;1999.90;999.90;;;;;;;7.73;85.50;98354.47;5067027;28;20051;-65
2021/04/19 02:04:52;;;;;;;1999.90;999.90;;;;;;;7.84;85.40;98355.06;5064392;28;20459;-65
2021/04/19 02:07:36;;;;;;;1999.90;999.90;;;;;;;7.94;84.81;98354.84;5062849;28;20044;-65
2021/04/19 02:10:14;;;;;;;1999.90;999.90;;;;;;;7.87;84.93;98352.50;5063100;28;20044;-65
2021/04/19 02:12:55;;;;;;;1999.90;999.90;;;;;;;7.89;84.46;98357.69;5062594;28;20055;-65
2021/04/19 02:15:32;;;;;;;1999.90;999.90;;;;;;;8.07;84.57;98353.22;5066142;28;20063;-65
2021/04/19 02:18:27;;;;;;;1999.90;999.90;;;;;;;8.24;83.22;98352.53;5066126;28;20049;-64
2021/04/19 02:21:04;;;;;;;1999.90;999.90;;;;;;;8.61;82.28;98345.09;5061001;28;20049;-65
2021/04/19 02:23:53;;;;;;;1999.90;999.90;;;;;;;8.18;83.45;98340.81;5063070;28;20045;-65
2021/04/19 02:26:24;;;;;;;1999.90;999.90;;;;;;;8.32;83.28;98343.56;5056587;28;20063;-65
2021/04/19 02:29:10;;;;;;;1999.90;999.90;;;;;;;8.29;83.07;98341.41;5060660;28;20499;-65
2021/04/19 02:31:41;;;;;;;1999.90;999.90;;;;;;;8.23;82.86;98340.72;5066033;28;20071;-65
2021/04/19 02:34:10;;;;;;;1999.90;999.90;;;;;;;8.47;82.42;98339.66;5065925;28;20050;-65
2021/04/19 02:36:42;;;;;;;1999.90;999.90;;;;;;;8.33;82.51;98338.84;5065663;28;20550;-65
2021/04/19 02:39:08;;;;;;;1999.90;999.90;;;;;;;7.69;85.38;98342.44;5065899;28;20048;-65
2021/04/19 02:41:35;;;;;;;1999.90;999.90;;;;;;;7.83;85.25;98339.66;5059468;28;20132;-65
2021/04/19 02:44:03;;;;;;;1999.90;999.90;;;;;;;8.03;84.56;98341.97;5063915;28;20503;-65
2021/04/19 02:46:30;;;;;;;1999.90;999.90;;;;;;;7.87;85.04;98333.22;5061041;28;20059;-65
2021/04/19 02:48:58;;;;;;;1999.90;999.90;;;;;;;7.99;84.99;98332.69;5066413;28;20052;-66
2021/04/19 02:51:25;;;;;;;1999.90;999.90;;;;;;;8.10;84.35;98331.34;5065946;28;20051;-65
2021/04/19 02:53:52;;;;;;;1999.90;999.90;;;;;;;8.18;83.91;98329.00;5063690;28;20045;-65
2021/04/19 02:56:18;;;;;;;1999.90;999.90;;;;;;;8.58;82.76;98330.00;5066249;28;20085;-65
2021/04/19 02:58:55;;;;;;;1999.90;999.90;;;;;;;8.38;82.76;98323.00;5063968;28;20716;-65
2021/04/19 03:01:25;;;;;;;1999.90;999.90;;;;;;;8.37;82.84;98335.16;5065804;28;20393;-65
2021/04/19 03:03:55;;;;;;;1999.90;999.90;;;;;;;8.21;83.96;98329.19;5061004;28;20102;-64
2021/04/19 03:06:25;;;;;;;1999.90;999.90;;;;;;;8.10;84.61;98334.13;5066543;28;20045;-65
2021/04/19 03:08:57;;;;;;;1999.90;999.90;;;;;;;8.62;83.03;98335.72;5064761;28;20049;-64
2021/04/19 03:11:44;;;;;;;1999.90;999.90;;;;;;;9.09;80.91;98333.41;5063085;28;20060;-65
2021/04/19 03:14:12;;;;;;;1999.90;999.90;;;;;;;9.21;80.19;98341.09;5066525;28;20044;-65
2021/04/19 03:16:45;;;;;;;1999.90;999.90;;;;;;;9.32;79.46;98341.66;5076649;28;20055;-65
2021/04/19 03:19:15;;;;;;;1999.90;999.90;;;;;;;9.22;79.58;98322.59;5061874;28;20048;-65
2021/04/19 03:21:43;;;;;;;1999.90;999.90;;;;;;;9.12;80.02;98335.53;5064843;28;20515;-65
2021/04/19 03:24:11;;;;;;;1999.90;999.90;;;;;;;9.19;79.19;98328.75;5066282;28;20056;-65
2021/04/19 03:26:39;;;;;;;1999.90;999.90;;;;;;;9.20;79.35;98333.13;5064293;28;20044;-65
2021/04/19 03:29:07;;;;;;;1999.90;999.90;;;;;;;9.31;79.07;98332.53;5061994;28;20062;-65
2021/04/19 03:31:44;;;;;;;1999.90;999.90;;;;;;;9.24;79.42;98337.69;5065926;28;20396;-64
2021/04/19 03:34:22;;;;;;;1999.90;999.90;;;;;;;9.11;79.38;98324.81;5061477;28;20102;-65
2021/04/19 03:36:52;;;;;;;1999.90;999.90;;;;;;;9.02;80.04;98333.06;5063063;28;20051;-64
2021/04/19 03:39:19;;;;;;;1999.90;999.90;;;;;;;9.15;79.88;98326.63;5064357;28;20044;-64
2021/04/19 03:41:48;;;;;;;1999.90;999.90;;;;;;;9.25;79.25;98331.06;5063908;28;20106;-65
2021/04/19 03:44:21;;;;;;;1999.90;999.90;;;;;;;9.12;79.31;98323.69;5062853;28;20044;-65
2021/04/19 03:46:49;;;;;;;1999.90;999.90;;;;;;;8.48;82.25;98332.19;5062460;28;20048;-65
2021/04/19 03:49:26;;;;;;;1999.90;999.90;;;;;;;8.56;82.95;98331.44;5066660;28;20056;-64
2021/04/19 03:51:58;;;;;;;1999.90;999.90;;;;;;;8.86;81.64;98329.88;5060692;28;20117;-65
2021/04/19 03:54:28;;;;;;;1999.90;999.90;;;;;;;8.84;81.33;98326.59;5066648;28;20114;-65
2021/04/19 03:56:56;;;;;;;1999.90;999.90;;;;;;;8.97;81.05;98324.91;5064700;28;20045;-64
2021/04/19 03:59:24;;;;;;;1999.90;999.90;;;;;;;9.04;80.91;98317.00;5063561;28;20052;-65
2021/04/19 04:01:51;;;;;;;1999.90;999.90;;;;;;;9.18;80.01;98318.84;5062805;28;20049;-65
2021/04/19 04:04:19;;;;;;;1999.90;999.90;;;;;;;9.17;80.27;98318.03;5062131;28;20110;-65
2021/04/19 04:06:46;;;;;;;1999.90;999.90;;;;;;;9.12;80.21;98310.69;5060460;28;20056;-64
2021/04/19 04:09:14;;;;;;;1999.90;999.90;;;;;;;9.07;80.43;98310.84;5056257;28;20045;-65
2021/04/19 04:11:42;;;;;;;1999.90;999.90;;;;;;;9.19;79.99;98315.78;5058637;28;20056;-65
2021/04/19 04:14:08;;;;;;;1999.90;999.90;;;;;;;9.11;79.75;98314.59;5056740;28;20060;-65
2021/04/19 04:16:42;;;;;;;1999.90;999.90;;;;;;;9.10;80.28;98309.41;5058562;28;20049;-65
2021/04/19 04:19:09;;;;;;;1999.90;999.90;;;;;;;9.06;80.12;98311.97;5059787;28;20147;-65
2021/04/19 04:21:35;;;;;;;1999.90;999.90;;;;;;;9.13;80.31;98303.25;5057133;28;20098;-65
2021/04/19 04:24:03;;;;;;;1999.90;999.90;;;;;;;9.12;80.04;98307.13;5061597;28;20052;-65
2021/04/19 04:26:31;;;;;;;1999.90;999.90;;;;;;;9.21;79.90;98312.69;5062578;28;20048;-65
2021/04/19 04:28:58;;;;;;;1999.90;999.90;;;;;;;9.36;79.61;98314.22;5064079;28;20117;-65
2021/04/19 04:31:24;;;;;;;1999.90;999.90;;;;;;;9.31;79.61;98312.41;5061258;28;20095;-65
2021/04/19 04:33:50;;;;;;;1999.90;999.90;;;;;;;9.25;80.01;98302.66;5064630;28;20052;-65
2021/04/19 04:36:17;;;;;;;1999.90;999.90;;;;;;;9.14;80.30;98302.09;5062428;28;20071;-65
2021/04/19 04:38:44;;;;;;;1999.90;999.90;;;;;;;9.26;80.25;98309.78;5061933;28;20056;-65
2021/04/19 04:41:10;;;;;;;1999.90;999.90;;;;;;;9.12;80.94;98309.88;5059202;28;20060;-65
2021/04/19 04:43:40;;;;;;;1999.90;999.90;;;;;;;8.80;82.32;98307.13;5058517;28;20048;-64
2021/04/19 04:46:25;;;;;;;1999.90;999.90;;;;;;;8.86;82.67;98310.56;5063100;28;20463;-65
2021/04/19 04:49:01;;;;;;;1999.90;999.90;;;;;;;8.70;83.08;98307.38;5061486;28;20478;-64
2021/04/19 04:51:30;;;;;;;1999.90;999.90;;;;;;;8.60;83.81;98302.94;5055310;28;20068;-64
2021/04/19 04:54:02;;;;;;;1999.90;999.90;;;;;;;8.78;83.47;98298.38;5060768;28;20056;-64
2021/04/19 04:56:34;;;;;;;1999.90;999.90;;;;;;;8.95;82.88;98296.84;5062945;28;20065;-65
2021/04/19 04:59:03;;;;;;;1999.90;999.90;;;;;;;8.90;82.83;98305.22;5063450;28;20060;-65
2021/04/19 05:01:31;;;;;;;1999.90;999.90;;;;;;;9.02;82.87;98304.63;5062444;28;20466;-65
2021/04/19 05:03:59;;;;;;;1999.90;999.90;;;;;;;9.22;82.31;98311.56;5061912;28;20075;-65
2021/04/19 05:06:27;;;;;;;1999.90;999.90;;;;;;;8.32;85.73;98304.97;5061191;28;20084;-65
2021/04/19 05:08:54;;;;;;;1999.90;999.90;;;;;;;8.51;84.95;98301.25;5064059;28;20464;-64
2021/04/19 05:11:21;;;;;;;1999.90;999.90;;;;;;;8.66;84.92;98298.09;5058432;28;20114;-64
2021/04/19 05:13:47;;;;;;;1999.90;999.90;;;;;;;8.84;84.21;98299.03;5061507;28;20049;-65
2021/04/19 05:16:26;;;;;;;1999.90;999.90;;;;;;;8.61;84.77;98293.53;5063810;28;20415;-65
2021/04/19 05:18:53;;;;;;;1999.90;999.90;;;;;;;8.45;85.69;98297.81;5060128;28;20052;-64
2021/04/19 05:21:20;;;;;;;1999.90;999.90;;;;;;;8.23;87.22;98291.13;5061706;28;20044;-64
2021/04/19 05:23:46;;;;;;;1999.90;999.90;;;;;;;8.49;86.26;98290.53;5061692;28;20052;-64
2021/04/19 05:26:12;;;;;;;1999.90;999.90;;;;;;;8.71;85.78;98294.41;5064306;28;20052;-64
2021/04/19 05:28:41;;;;;;;1999.90;999.90;;;;;;;8.82;84.79;98302.09;5062400;28;20053;-64
2021/04/19 05:31:10;;;;;;;1999.90;999.90;;;;;;;8.79;85.03;98283.44;5060962;28;20154;-64
2021/04/19 05:33:37;;;;;;;1999.90;999.90;;;;;;;8.81;85.12;98288.63;5060780;28;20048;-64
2021/04/19 05:36:11;;;;;;;1999.90;999.90;;;;;;;9.14;84.23;98296.56;5062181;28;20128;-65
2021/04/19 05:38:41;;;;;;;1999.90;999.90;;;;;;;9.16;83.94;98292.38;5061602;28;20558;-65
2021/04/19 05:41:12;;;;;;;1999.90;999.90;;;;;;;8.48;86.61;98304.63;5058809;28;20315;-66
2021/04/19 05:43:43;;;;;;;1999.90;999.90;;;;;;;7.33;92.46;98312.88;5063817;28;20106;-65
2021/04/19 05:46:15;;;;;;;1999.90;999.90;;;;;;;8.02;91.82;98298.22;5060854;28;20044;-65
2021/04/19 05:48:41;;;;;;;;;;;;;;;8.39;89.16;98305.34;5062952;28;20578;-66
2021/04/19 05:51:17;;;;;;;1999.90;999.90;;;;;;;8.40;89.47;98312.50;5064092;28;19935;-65
2021/04/19 05:53:48;;;;;;;1999.90;999.90;;;;;;;7.71;91.77;98313.50;5060491;28;20045;-65
2021/04/19 05:56:24;;;;;;;1999.90;999.90;;;;;;;7.73;92.30;98300.22;5056154;28;20064;-65
2021/04/19 05:59:02;;;;;;;1999.90;999.90;;;;;;;7.88;91.47;98301.03;5059749;28;20049;-66
2021/04/19 06:01:31;;;;;;;1999.90;999.90;;;;;;;8.07;90.43;98300.88;5060186;28;20486;-63
2021/04/19 06:04:05;;;;;;;1999.90;999.90;;;;;;;8.15;90.56;98299.31;5059597;28;20074;-64
2021/04/19 06:06:40;;;;;;;1999.90;999.90;;;;;;;8.10;91.33;98305.75;5059305;28;20402;-64
2021/04/19 06:09:15;;;;;;;1999.90;999.90;;;;;;;8.52;90.26;98308.41;5062043;28;20118;-64
2021/04/19 06:11:46;;;;;;;1999.90;999.90;;;;;;;9.17;86.75;98301.50;5061506;28;20110;-64
2021/04/19 06:14:16;;;;;;;1999.90;999.90;;;;;;;9.15;85.94;98299.06;5064746;28;20044;-64
2021/04/19 06:16:42;;;;;;;1999.90;999.90;;;;;;;9.50;84.77;98307.44;5059565;28;20518;-64
2021/04/19 06:19:14;;;;;;;1999.90;999.90;;;;;;;8.73;87.42;98306.75;5058800;28;20091;-64
2021/04/19 06:21:42;;;;;;;1999.90;999.90;;;;;;;9.19;86.62;98301.16;5060755;28;20052;-64
2021/04/19 06:24:09;;;;;;;1999.90;999.90;;;;;;;9.54;84.66;98306.81;5062993;28;20052;-64
2021/04/19 06:26:36;;;;;;;1999.90;999.90;;;;;;;8.55;88.05;98307.78;5053727;28;20106;-65
2021/04/19 06:29:04;;;;;;;1999.90;999.90;;;;;;;8.34;90.56;98310.97;5062748;28;20055;-64
2021/04/19 06:31:32;;;;;;;1999.90;999.90;;;;;;;8.97;88.59;98308.34;5061753;28;20056;-64
2021/04/19 06:34:07;;;;;;;1999.90;999.90;;;;;;;9.45;85.62;98315.88;5062026;28;20057;-65
2021/04/19 06:36:40;;;;;;;1999.90;999.90;;;;;;;9.29;86.21;98314.66;5063750;28;20052;-65
2021/04/19 06:39:09;;;;;;;1999.90;999.90;;;;;;;9.09;87.34;98308.56;5055740;28;20052;-64
2021/04/19 06:41:35;;;;;;;1999.90;999.90;;;;;;;9.38;86.32;98315.53;5058678;28;20110;-65
2021/04/19 06:44:03;;;;;;;1999.90;999.90;;;;;;;9.28;87.19;98305.59;5058766;28;20476;-65
2021/04/19 06:46:37;;;;;;;1999.90;999.90;;;;;;;9.55;86.09;98311.22;5056642;28;20515;-64
2021/04/19 06:49:05;;;;;;;1999.90;999.90;;;;;;;9.23;87.19;98311.25;5064201;28;20470;-65
2021/04/19 06:51:32;;;;;;;1999.90;999.90;;;;;;;9.30;87.75;98306.09;5059764;28;20504;-65
2021/04/19 06:53:59;;;;;;;1999.90;999.90;;;;;;;9.34;88.11;98311.78;5055988;28;20458;-65
2021/04/19 06:56:29;;;;;;;1999.90;999.90;;;;;;;9.59;87.18;98315.75;5056434;28;20056;-65
2021/04/19 06:58:56;;;;;;;1999.90;999.90;;;;;;;9.45;87.77;98326.09;5062858;28;20052;-65
2021/04/19 07:01:25;;;;;;;1999.90;999.90;;;;;;;9.39;87.62;98316.34;5072835;28;20048;-65
2021/04/19 07:04:02;;;;;;;1999.90;999.90;;;;;;;9.86;86.26;98322.16;5054534;28;20140;-63
2021/04/19 07:06:33;;;;;;;1999.90;999.90;;;;;;;10.09;85.25;98331.13;5056614;28;20427;-64
2021/04/19 07:09:21;;;;;;;1999.90;999.90;;;;;;;9.87;85.25;98324.59;5061239;28;20044;-64
2021/04/19 07:11:52;;;;;;;1999.90;999.90;;;;;;;9.23;88.21;98336.09;5059603;28;20048;-63
2021/04/19 07:14:19;;;;;;;1999.90;999.90;;;;;;;8.18;93.37;98345.53;5057299;28;20052;-64
2021/04/19 07:16:45;;;;;;;1999.90;999.90;;;;;;;8.21;95.00;98358.69;5062845;28;20051;-64
2021/04/19 07:19:12;;;;;;;1999.90;999.90;;;;;;;7.79;96.30;98369.75;5059188;28;20053;-64
2021/04/19 07:21:39;;;;;;;1999.90;999.90;;;;;;;7.99;96.80;98368.50;5061738;28;20575;-64
2021/04/19 07:24:06;;;;;;;1999.90;999.90;;;;;;;7.73;97.16;98362.72;5061340;28;20431;-64
2021/04/19 07:26:32;;;;;;;1999.90;999.90;;;;;;;8.02;97.54;98359.63;5060194;28;20130;-64
2021/04/19 07:28:59;;;;;;;1999.90;999.90;;;;;;;8.59;95.26;98361.94;5059539;28;20508;-64
2021/04/19 07:31:25;;;;;;;1999.90;999.90;;;;;;;8.91;93.52;98362.00;5060758;28;20483;-64
2021/04/19 07:33:54;;;;;;;1999.90;999.90;;;;;;;8.19;96.61;98350.72;5060655;28;20495;-63
2021/04/19 07:36:29;;;;;;;1999.90;999.90;;;;;;;8.41;96.01;98344.44;5058493;28;20066;-63
2021/04/19 07:38:59;;;;;;;1999.90;999.90;;;;;;;8.62;95.58;98346.75;5058024;28;20052;-63
2021/04/19 07:41:51;;;;;;;1999.90;999.90;;;;;;;9.37;91.73;98343.44;5059247;28;20480;-63
2021/04/19 07:44:33;;;;;;;;;;;;;;;9.60;90.09;98345.00;5059838;28;20052;-64
2021/04/19 07:47:17;;;;;;;1999.90;999.90;;;;;;;9.47;89.49;98346.72;5062677;28;19928;-64
2021/04/19 07:50:12;;;;;;;1999.90;999.90;;;;;;;9.49;89.60;98352.75;5060061;28;21137;-63
2021/04/19 07:52:56;;;;;;;1999.90;999.90;;;;;;;9.74;89.00;98344.06;5060927;28;20138;-64
2021/04/19 07:55:30;;;;;;;1999.90;999.90;;;;;;;9.65;88.57;98344.84;5059909;28;20052;-63
2021/04/19 07:58:08;;;;;;;1999.90;999.90;;;;;;;10.13;87.64;98343.19;5060084;28;20040;-63
2021/04/19 08:00:35;;;;;;;1999.90;999.90;;;;;;;10.35;86.90;98344.22;5065704;28;20049;-63
2021/04/19 08:03:04;;;;;;;1999.90;999.90;;;;;;;10.54;85.94;98339.19;5063072;28;20059;-63
2021/04/19 08:05:30;;;;;;;1999.90;999.90;;;;;;;10.59;86.23;98340.16;5066064;28;20055;-63
2021/04/19 08:07:57;;;;;;;1999.90;999.90;;;;;;;10.34;87.65;98334.28;5062571;28;20426;-63
2021/04/19 08:10:23;;;;;;;1999.90;999.90;;;;;;;9.76;89.51;98339.84;5065497;28;20059;-63
2021/04/19 08:12:52;;;;;;;1999.90;999.90;;;;;;;9.38;92.05;98337.63;5063857;28;20404;-63
2021/04/19 08:15:21;;;;;;;1999.90;999.90;;;;;;;9.90;90.15;98344.44;5063953;28;20057;-63
2021/04/19 08:17:47;;;;;;;1999.90;999.90;;;;;;;10.08;88.01;98343.34;5063888;28;20052;-64
2021/04/19 08:20:22;;;;;;;1999.90;999.90;;;;;;;9.50;90.67;98354.38;5064536;28;20052;-63
2021/04/19 08:22:48;;;;;;;1999.90;999.90;;;;;;;9.67;90.17;98344.53;5064560;28;20129;-63
2021/04/19 08:25:18;;;;;;;1999.90;999.90;;;;;;;9.37;91.32;98348.97;5065011;28;20052;-64
2021/04/19 08:27:47;;;;;;;1999.90;999.90;;;;;;;9.67;90.01;98347.28;5064448;28;20040;-64
2021/04/19 08:30:16;;;;;;;1999.90;999.90;;;;;;;10.04;88.56;98350.63;5065398;28;20504;-63
2021/04/19 08:32:46;;;;;;;1999.90;999.90;;;;;;;10.34;86.83;98348.09;5076993;28;20695;-64
2021/04/19 08:35:13;;;;;;;1999.90;999.90;;;;;;;10.61;85.81;98344.19;5060780;28;20045;-64
2021/04/19 08:37:41;;;;;;;1999.90;999.90;;;;;;;10.56;86.52;98345.19;5062770;28;20048;-64
2021/04/19 08:40:08;;;;;;;1999.90;999.90;;;;;;;10.56;86.33;98339.66;5057268;28;20110;-63
2021/04/19 08:42:36;;;;;;;1999.90;999.90;;;;;;;10.29;87.28;98335.22;5063313;28;20053;-63
2021/04/19 08:45:04;;;;;;;1999.90;999.90;;;;;;;10.46;87.12;98328.91;5065461;28;20054;-64
2021/04/19 08:47:31;;;;;;;1999.90;999.90;;;;;;;10.28;87.48;98321.75;5062825;28;20063;-64
2021/04/19 08:50:04;;;;;;;1999.90;999.90;;;;;;;10.57;87.48;98324.69;5065301;28;20500;-64
2021/04/19 08:52:30;;;;;;;1999.90;999.90;;;;;;;10.51;86.79;98320.47;5060556;28;20056;-64
2021/04/19 08:54:56;;;;;;;1999.90;999.90;;;;;;;10.28;87.91;98314.25;5062504;28;20522;-64
2021/04/19 08:57:23;;;;;;;1999.90;999.90;;;;;;;9.94;89.22;98301.22;5065218;28;20056;-64
2021/04/19 08:59:51;;;;;;;1999.90;999.90;;;;;;;10.30;89.00;98308.41;5063380;28;20121;-64
2021/04/19 09:02:19;;;;;;;1999.90;999.90;;;;;;;10.32;87.19;98317.19;5062290;28;20060;-64
2021/04/19 09:05:06;;;;;;;1999.90;999.90;;;;;;;10.32;87.22;98318.00;5059256;28;20048;-64
2021/04/19 09:07:34;;;;;;;1999.90;999.90;;;;;;;10.65;86.70;98322.25;5060623;28;20072;-64
2021/04/19 09:10:00;;;;;;;1999.90;999.90;;;;;;;10.85;86.18;98317.97;5062407;28;20117;-64
2021/04/19 09:12:29;;;;;;;1999.90;999.90;;;;;;;10.82;85.98;98319.47;5057223;28;20048;-64
2021/04/19 09:15:26;;;;;;;1999.90;999.90;;;;;;;10.66;86.65;98316.41;5061997;28;20052;-64
2021/04/19 09:18:07;;;;;;;1999.90;999.90;;;;;;;10.08;88.02;98315.72;5059632;28;20500;-64
2021/04/19 09:20:52;;;;;;;1999.90;999.90;;;;;;;10.31;88.55;98310.03;5060627;28;20048;-64
2021/04/19 09:23:31;;;;;;;1999.90;999.90;;;;;;;10.10;89.36;98310.66;5059092;28;20550;-64
2021/04/19 09:25:59;;;;;;;1999.90;999.90;;;;;;;10.39;88.84;98312.00;5059649;28;20102;-64
2021/04/19 09:28:40;;;;;;;1999.90;999.90;;;;;;;10.14;88.37;98302.56;5060355;28;20060;-64
2021/04/19 09:31:07;;;;;;;1999.90;999.90;;;;;;;10.62;87.84;98314.63;5058108;28;20167;-64
2021/04/19 09:33:34;;;;;;;1999.90;999.90;;;;;;;10.64;86.97;98315.09;5061713;28;20090;-63
2021/04/19 09:36:00;;;;;;;1999.90;999.90;;;;;;;10.81;86.87;98306.78;5058809;28;20053;-64
2021/04/19 09:38:41;;;;;;;1999.90;999.90;;;;;;;10.76;86.82;98301.41;5062062;28;20252;-64
2021/04/19 09:41:10;;;;;;;1999.90;999.90;;;;;;;10.73;87.23;98299.28;5060992;28;20109;-63
2021/04/19 09:43:37;;;;;;;1999.90;999.90;;;;;;;10.62;87.45;98298.81;5057440;28;20055;-64
2021/04/19 09:46:09;;;;;;;1999.90;999.90;;;;;;;10.98;87.44;98299.56;5060984;28;20118;-64
2021/04/19 09:48:39;;;;;;;1999.90;999.90;;;;;;;11.09;87.58;98289.75;5058631;28;20056;-64
2021/04/19 09:51:12;;;;;;;1999.90;999.90;;;;;;;10.90;88.60;98293.72;5064699;28;20063;-64
2021/04/19 09:54:00;;;;;;;1999.90;999.90;;;;;;;11.09;89.05;98282.28;5061989;28;20438;-64
2021/04/19 09:56:27;;;;;;;1999.90;999.90;;;;;;;10.88;87.99;98284.97;5061146;28;20052;-63
2021/04/19 09:58:54;;;;;;;1999.90;999.90;;;;;;;10.62;86.23;98275.91;5058425;28;20053;-63
2021/04/19 10:01:21;;;;;;;1999.90;999.90;;;;;;;10.87;86.19;98277.78;5061376;28;20059;-63
2021/04/19 10:03:50;;;;;;;1999.90;999.90;;;;;;;11.44;85.17;98273.81;5064059;28;20059;-63
2021/04/19 10:06:22;;;;;;;1999.90;999.90;;;;;;;10.93;83.77;98264.59;5059379;28;20539;-64
2021/04/19 10:08:50;;;;;;;1999.90;999.90;;;;;;;11.22;83.63;98263.81;5060837;28;20117;-64
2021/04/19 10:11:25;;;;;;;1999.90;999.90;;;;;;;11.74;83.15;98281.34;5061412;28;20090;-63
2021/04/19 10:13:51;;;;;;;1999.90;999.90;;;;;;;11.19;81.82;98275.56;5059718;28;20052;-64
2021/04/19 10:16:18;;;;;;;1999.90;999.90;;;;;;;11.39;83.04;98276.00;5064973;28;20049;-63
2021/04/19 10:18:52;;;;;;;1999.90;999.90;;;;;;;11.63;82.18;98276.19;5060283;28;20565;-63
2021/04/19 10:21:29;;;;;;;1999.90;999.90;;;;;;;11.74;82.47;98273.03;5058925;28;20061;-64
2021/04/19 10:23:59;;;;;;;1999.90;999.90;;;;;;;11.42;81.94;98269.78;5060036;28;20479;-64
2021/04/19 10:26:34;;;;;;;1999.90;999.90;;;;;;;11.37;82.82;98272.72;5061437;28;20048;-64
2021/04/19 10:29:17;;;;;;;1999.90;999.90;;;;;;;11.81;83.37;98265.78;5061737;28;20110;-64
2021/04/19 10:31:51;;;;;;;1999.90;999.90;;;;;;;11.41;83.25;98268.16;5058530;28;20048;-64
2021/04/19 10:34:20;;;;;;;1999.90;999.90;;;;;;;11.76;81.69;98273.47;5064039;28;20055;-64
2021/04/19 10:36:52;;;;;;;1999.90;999.90;;;;;;;12.08;80.44;98271.19;5059323;28;20509;-64
2021/04/19 10:39:24;;;;;;;1999.90;999.90;;;;;;;11.98;81.55;98270.47;5062734;28;20063;-64
2021/04/19 10:41:57;;;;;;;1999.90;999.90;;;;;;;12.33;79.16;98275.72;5061677;28;20052;-65
2021/04/19 10:44:37;;;;;;;1999.90;999.90;;;;;;;12.28;78.63;98278.72;5060280;28;20056;-64
2021/04/19 10:47:06;;;;;;;1999.90;999.90;;;;;;;12.13;78.59;98282.06;5060382;28;20113;-64
2021/04/19 10:49:33;;;;;;;1999.90;999.90;;;;;;;12.20;78.82;98281.53;5060618;28;20319;-64
2021/04/19 10:52:02;;;;;;;1999.90;999.90;;;;;;;12.04;78.28;98275.78;5063576;28;20523;-64
2021/04/19 10:54:31;;;;;;;1999.90;999.90;;;;;;;11.85;79.21;98271.50;5060458;28;20094;-64
2021/04/19 10:57:00;;;;;;;1999.90;999.90;;;;;;;11.74;79.26;98261.94;5059195;28;20059;-64
2021/04/19 10:59:26;;;;;;;1999.90;999.90;;;;;;;11.66;79.11;98274.69;5060572;28;20048;-65
2021/04/19 11:01:57;;;;;;;1999.90;999.90;;;;;;;11.49;81.76;98264.50;5061567;28;20617;-64
2021/04/19 11:04:24;;;;;;;1999.90;999.90;;;;;;;11.97;79.95;98268.81;5061138;28;20553;-64
2021/04/19 11:06:50;;;;;;;1999.90;999.90;;;;;;;11.93;78.43;98267.06;5059314;28;20564;-64
2021/04/19 11:09:18;;;;;;;1999.90;999.90;;;;;;;11.56;79.66;98264.81;5058016;28;20117;-64
2021/04/19 11:11:51;;;;;;;1999.90;999.90;;;;;;;11.59;80.45;98264.13;5058519;28;20044;-64
2021/04/19 11:14:25;;;;;;;1999.90;999.90;;;;;;;11.76;80.15;98256.88;5054991;28;20110;-64